createdAt,value
2019-02-04T00:00:24.829Z,101955.09
2019-02-04T00:02:53.117Z,101958.66
2019-02-04T00:05:21.517Z,101957.07
2019-02-04T00:07:49.833Z,101961.97
2019-02-04T00:10:18.224Z,101958.50
2019-02-04T00:12:46.505Z,101962.92
2019-02-04T00:15:15.083Z,101963.41
2019-02-04T00:17:43.325Z,101963.39
2019-02-04T00:20:11.806Z,101967.45
2019-02-04T00:22:40.091Z,101967.07
2019-02-04T00:25:08.569Z,101963.08
2019-02-04T00:27:36.856Z,101969.24
2019-02-04T00:30:29.081Z,101967.94
2019-02-04T00:32:57.461Z,101975.73
2019-02-04T00:35:25.710Z,101968.94
2019-02-04T00:37:54.015Z,101968.96
2019-02-04T00:40:24.773Z,101966.20
2019-02-04T00:42:53.139Z,101980.41
2019-02-04T00:45:21.492Z,101978.02
2019-02-04T00:47:49.785Z,101989.63
2019-02-04T00:50:20.513Z,101991.52
2019-02-04T00:52:48.765Z,101991.78
2019-02-04T00:55:18.685Z,101993.98
2019-02-04T00:57:46.951Z,101996.30
2019-02-04T01:00:20.939Z,102002.92
2019-02-04T01:02:49.205Z,102003.41
2019-02-04T01:05:19.703Z,101999.75
2019-02-04T01:07:48.511Z,102000.16
2019-02-04T01:10:23.034Z,102002.77
2019-02-04T01:12:51.308Z,102011.15
2019-02-04T01:15:19.736Z,102014.39
2019-02-04T01:17:47.984Z,102018.25
2019-02-04T01:20:30.108Z,102014.69
2019-02-04T01:22:58.746Z,102019.03
2019-02-04T01:25:26.994Z,102028.69
2019-02-04T01:27:55.247Z,102019.80
2019-02-04T01:30:24.464Z,102019.37
2019-02-04T01:32:52.708Z,102018.52
2019-02-04T01:35:21.113Z,102013.20
2019-02-04T01:37:49.354Z,102026.49
2019-02-04T01:40:19.780Z,102030.84
2019-02-04T01:42:48.110Z,102031.27
2019-02-04T01:45:16.428Z,102029.55
2019-02-04T01:47:44.672Z,102029.53
2019-02-04T01:50:15.337Z,102028.20
2019-02-04T01:52:43.586Z,102035.56
2019-02-04T01:55:13.665Z,102038.69
2019-02-04T01:57:41.998Z,102041.83
2019-02-04T02:00:25.827Z,102041.37
2019-02-04T02:02:54.354Z,102044.54
2019-02-04T02:05:22.733Z,102046.81
2019-02-04T02:07:50.976Z,102044.08
2019-02-04T02:10:21.426Z,102045.00
2019-02-04T02:12:49.857Z,102052.84
2019-02-04T02:15:18.168Z,102053.72
2019-02-04T02:17:46.914Z,102058.04
2019-02-04T02:20:20.721Z,102069.50
2019-02-04T02:22:48.960Z,102068.58
2019-02-04T02:25:17.356Z,102077.88
2019-02-04T02:27:45.606Z,102078.73
2019-02-04T02:30:20.057Z,102071.63
2019-02-04T02:32:47.667Z,102076.48
2019-02-04T02:35:16.154Z,102073.77
2019-02-04T02:37:44.420Z,102076.50
2019-02-04T02:40:21.557Z,102070.24
2019-02-04T02:42:49.819Z,102081.33
2019-02-04T02:45:18.411Z,102081.75
2019-02-04T02:47:46.674Z,102080.91
2019-02-04T02:50:15.272Z,102080.93
2019-02-04T02:52:43.533Z,102082.66
2019-02-04T02:55:14.605Z,102079.55
2019-02-04T02:57:42.853Z,102081.72
2019-02-04T03:00:14.449Z,102083.05
2019-02-04T03:02:44.355Z,102084.33
2019-02-04T03:05:14.933Z,102087.40
2019-02-04T03:07:43.185Z,102085.66
2019-02-04T03:10:17.700Z,102088.29
2019-02-04T03:12:46.313Z,102094.45
2019-02-04T03:15:14.653Z,102081.13
2019-02-04T03:17:51.393Z,102084.66
2019-02-04T03:20:13.175Z,102090.87
2019-02-04T03:22:43.073Z,102088.16
2019-02-04T03:25:13.142Z,102085.56
2019-02-04T03:27:41.672Z,102076.66
2019-02-04T03:30:16.066Z,102079.70
2019-02-04T03:32:43.691Z,102082.33
2019-02-04T03:35:12.035Z,102080.95
2019-02-04T03:37:43.337Z,102085.84
2019-02-04T03:40:14.793Z,102087.22
2019-02-04T03:42:43.042Z,102083.69
2019-02-04T03:45:12.596Z,102085.02
2019-02-04T03:47:40.857Z,102089.06
2019-02-04T03:50:11.639Z,102079.34
2019-02-04T03:52:39.917Z,102084.25
2019-02-04T03:55:11.082Z,102078.47
2019-02-04T03:57:39.331Z,102086.08
2019-02-04T04:00:18.074Z,102088.31
2019-02-04T04:02:46.325Z,102082.08
2019-02-04T04:05:14.641Z,102082.92
2019-02-04T04:07:43.299Z,102091.31
2019-02-04T04:10:11.588Z,102093.08
2019-02-04T04:12:39.893Z,102092.13
2019-02-04T04:15:13.267Z,102089.95
2019-02-04T04:17:41.535Z,102085.25
2019-02-04T04:20:17.746Z,102097.73
2019-02-04T04:22:46.115Z,102093.23
2019-02-04T04:25:16.708Z,102102.03
2019-02-04T04:27:44.992Z,102106.93
2019-02-04T04:30:22.182Z,102102.53
2019-02-04T04:32:50.481Z,102101.59
2019-02-04T04:35:18.818Z,102102.84
2019-02-04T04:37:47.101Z,102102.84
2019-02-04T04:40:16.530Z,102105.89
2019-02-04T04:42:44.807Z,102103.23
2019-02-04T04:45:16.352Z,102107.22
2019-02-04T04:47:44.637Z,102103.61
2019-02-04T04:50:13.011Z,102107.95
2019-02-04T04:52:41.284Z,102109.19
2019-02-04T04:55:12.696Z,102103.78
2019-02-04T04:57:40.957Z,102098.44
2019-02-04T05:00:18.690Z,102090.77
2019-02-04T05:02:46.959Z,102093.34
2019-02-04T05:05:18.035Z,102096.79
2019-02-04T05:07:47.962Z,102088.75
2019-02-04T05:10:18.151Z,102091.73
2019-02-04T05:12:46.423Z,102089.86
2019-02-04T05:15:19.963Z,102087.58
2019-02-04T05:17:52.520Z,102096.81
2019-02-04T05:20:18.789Z,102092.30
2019-02-04T05:22:47.065Z,102091.83
2019-02-04T05:25:15.932Z,102088.63
2019-02-04T05:27:46.686Z,102085.84
2019-02-04T05:30:21.237Z,102083.61
2019-02-04T05:32:49.490Z,102081.30
2019-02-04T05:35:17.827Z,102086.59
2019-02-04T05:37:46.109Z,102089.28
2019-02-04T05:40:16.373Z,102081.33
2019-02-04T05:42:47.098Z,102079.65
2019-02-04T05:45:17.826Z,102084.97
2019-02-04T05:47:46.099Z,102087.14
2019-02-04T05:50:17.404Z,102087.98
2019-02-04T05:52:45.956Z,102083.56
2019-02-04T05:55:15.336Z,102085.78
2019-02-04T05:57:43.685Z,102085.32
2019-02-04T06:00:16.326Z,102089.75
2019-02-04T06:02:44.580Z,102085.20
2019-02-04T06:05:14.583Z,102077.13
2019-02-04T06:07:42.879Z,102085.08
2019-02-04T06:10:14.829Z,102080.59
2019-02-04T06:12:43.115Z,102080.59
2019-02-04T06:15:13.554Z,102073.47
2019-02-04T06:17:42.002Z,102077.91
2019-02-04T06:20:17.007Z,102081.46
2019-02-04T06:22:45.312Z,102080.53
2019-02-04T06:25:13.725Z,102077.41
2019-02-04T06:27:42.105Z,102079.23
2019-02-04T06:30:13.238Z,102081.80
2019-02-04T06:32:41.511Z,102087.56
2019-02-04T06:35:09.942Z,102087.94
2019-02-04T06:37:38.649Z,102084.84
2019-02-04T06:40:13.347Z,102075.05
2019-02-04T06:42:41.008Z,102075.86
2019-02-04T06:45:11.648Z,102077.25
2019-02-04T06:47:39.931Z,102079.11
2019-02-04T06:50:11.624Z,102083.45
2019-02-04T06:52:40.239Z,102081.50
2019-02-04T06:55:11.842Z,102079.76
2019-02-04T06:57:40.201Z,102079.33
2019-02-04T07:00:11.935Z,102085.92
2019-02-04T07:02:40.221Z,102084.06
2019-02-04T07:05:09.069Z,102085.89
2019-02-04T07:07:37.659Z,102079.70
2019-02-04T07:10:20.702Z,102071.34
2019-02-04T07:12:48.978Z,102073.59
2019-02-04T07:15:17.272Z,102069.17
2019-02-04T07:17:45.547Z,102062.45
2019-02-04T07:20:17.026Z,102062.91
2019-02-04T07:22:45.415Z,102068.23
2019-02-04T07:25:15.265Z,102065.05
2019-02-04T07:27:43.570Z,102062.78
2019-02-04T07:30:17.082Z,102066.75
2019-02-04T07:32:45.380Z,102067.92
2019-02-04T07:35:15.795Z,102065.66
2019-02-04T07:37:44.086Z,102065.47
2019-02-04T07:40:39.150Z,102066.20
2019-02-04T07:43:07.411Z,102061.14
2019-02-04T07:45:35.706Z,102059.84
2019-02-04T07:48:03.962Z,102057.52
2019-02-04T07:50:32.248Z,102059.18
2019-02-04T07:53:00.515Z,102066.46
2019-02-04T07:55:28.853Z,102060.64
2019-02-04T07:57:57.635Z,102059.05
2019-02-04T08:00:31.329Z,102054.09
2019-02-04T08:02:59.567Z,102055.91
2019-02-04T08:05:27.834Z,102053.75
2019-02-04T08:07:56.096Z,102055.20
2019-02-04T08:10:24.399Z,102053.44
2019-02-04T08:13:00.882Z,102060.98
2019-02-04T08:15:36.846Z,102059.08
2019-02-04T08:18:06.044Z,102063.92
2019-02-04T08:20:34.402Z,102059.61
2019-02-04T08:23:02.664Z,102066.63
2019-02-04T08:25:30.938Z,102068.83
2019-02-04T08:27:59.273Z,102064.73
2019-02-04T08:30:32.889Z,102067.46
2019-02-04T08:33:01.309Z,102068.06
2019-02-04T08:35:30.162Z,102064.53
2019-02-04T08:37:58.430Z,102059.35
2019-02-04T08:40:26.780Z,102054.44
2019-02-04T08:42:58.151Z,102066.34
2019-02-04T08:45:26.437Z,102066.91
2019-02-04T08:47:54.694Z,102059.70
2019-02-04T08:50:24.697Z,102055.92
2019-02-04T08:52:52.953Z,102062.34
2019-02-04T08:55:21.269Z,102055.33
2019-02-04T08:57:49.598Z,102060.06
2019-02-04T09:00:20.769Z,102059.02
2019-02-04T09:02:49.048Z,102052.74
2019-02-04T09:05:18.109Z,102049.53
2019-02-04T09:07:46.467Z,102054.69
2019-02-04T09:10:17.873Z,102055.16
2019-02-04T09:12:46.178Z,102049.56
2019-02-04T09:15:16.304Z,102061.59
2019-02-04T09:17:44.790Z,102061.91
2019-02-04T09:20:17.744Z,102062.91
2019-02-04T09:22:46.751Z,102056.54
2019-02-04T09:25:17.213Z,102054.13
2019-02-04T09:27:45.575Z,102058.45
2019-02-04T09:30:16.405Z,102058.72
2019-02-04T09:32:44.749Z,102062.11
2019-02-04T09:35:15.585Z,102066.12
2019-02-04T09:37:43.887Z,102071.06
2019-02-04T09:40:23.994Z,102070.70
2019-02-04T09:42:52.286Z,102070.48
2019-02-04T09:45:20.574Z,102060.67
2019-02-04T09:47:48.933Z,102063.52
2019-02-04T09:50:25.905Z,102066.47
2019-02-04T09:52:54.189Z,102050.21
2019-02-04T09:55:32.018Z,102056.45
2019-02-04T09:58:00.314Z,102065.64
2019-02-04T10:00:31.373Z,102055.48
2019-02-04T10:02:59.678Z,102056.93
2019-02-04T10:05:27.947Z,102063.64
2019-02-04T10:07:56.190Z,102062.89
2019-02-04T10:10:26.547Z,102050.38
2019-02-04T10:12:54.804Z,102055.69
2019-02-04T10:15:25.951Z,102055.35
2019-02-04T10:17:54.242Z,102053.34
2019-02-04T10:20:32.970Z,102057.06
2019-02-04T10:22:52.617Z,102056.38
2019-02-04T10:25:23.932Z,102059.58
2019-02-04T10:27:52.402Z,102057.16
2019-02-04T10:30:22.810Z,102065.91
2019-02-04T10:32:51.103Z,102058.26
2019-02-04T10:35:20.062Z,102058.88
2019-02-04T10:37:50.568Z,102061.63
2019-02-04T10:40:21.074Z,102050.39
2019-02-04T10:42:49.358Z,102052.52
2019-02-04T10:45:19.280Z,102048.12
2019-02-04T10:47:47.817Z,102044.45
2019-02-04T10:50:28.468Z,102041.34
2019-02-04T10:52:56.881Z,102038.23
2019-02-04T10:55:25.504Z,102034.20
2019-02-04T10:57:53.787Z,102030.84
2019-02-04T11:00:27.986Z,102026.13
2019-02-04T11:02:56.427Z,102031.15
2019-02-04T11:05:27.917Z,102023.56
2019-02-04T11:07:56.323Z,102026.45
2019-02-04T11:10:26.581Z,102015.81
2019-02-04T11:12:54.920Z,102018.74
2019-02-04T11:15:25.629Z,102026.25
2019-02-04T11:17:53.409Z,102021.81
2019-02-04T11:20:28.283Z,102021.56
2019-02-04T11:22:56.624Z,102022.73
2019-02-04T11:25:24.941Z,102018.62
2019-02-04T11:27:53.233Z,102014.28
2019-02-04T11:30:30.340Z,102009.91
2019-02-04T11:32:58.656Z,102014.10
2019-02-04T11:35:26.941Z,102020.16
2019-02-04T11:37:55.206Z,102006.89
2019-02-04T11:40:52.002Z,102006.34
2019-02-04T11:43:20.281Z,102002.94
2019-02-04T11:45:48.721Z,101997.56
2019-02-04T11:48:17.152Z,101995.66
2019-02-04T11:50:45.389Z,101986.80
2019-02-04T11:53:13.665Z,101992.24
2019-02-04T11:55:41.953Z,101984.50
2019-02-04T11:58:10.218Z,101986.55
2019-02-04T12:00:38.672Z,101989.42
2019-02-04T12:03:09.571Z,101985.03
2019-02-04T12:05:37.846Z,101981.25
2019-02-04T12:08:06.367Z,101991.20
2019-02-04T12:10:49.192Z,101979.72
2019-02-04T12:13:17.460Z,101978.02
2019-02-04T12:15:45.956Z,101984.43
2019-02-04T12:18:14.221Z,101979.30
2019-02-04T12:20:42.505Z,101973.36
2019-02-04T12:23:10.757Z,101965.25
2019-02-04T12:25:39.328Z,101967.33
2019-02-04T12:28:07.593Z,101964.09
2019-02-04T12:30:40.717Z,101961.53
2019-02-04T12:33:11.022Z,101951.44
2019-02-04T12:35:39.367Z,101962.05
2019-02-04T12:38:07.627Z,101964.88
2019-02-04T12:40:36.261Z,101960.30
2019-02-04T12:43:04.596Z,101967.08
2019-02-04T12:45:37.371Z,101963.53
2019-02-04T12:48:05.763Z,101969.22
2019-02-04T12:50:34.097Z,101966.28
2019-02-04T12:53:02.370Z,101966.70
2019-02-04T12:55:32.266Z,101963.40
2019-02-04T12:58:00.545Z,101967.19
2019-02-04T13:00:30.269Z,101969.44
2019-02-04T13:02:59.116Z,101967.84
2019-02-04T13:05:39.192Z,101964.19
2019-02-04T13:08:11.257Z,101959.54
2019-02-04T13:10:39.524Z,101959.20
2019-02-04T13:13:09.706Z,101955.96
2019-02-04T13:15:38.389Z,101956.75
2019-02-04T13:18:08.963Z,101962.06
2019-02-04T13:20:36.967Z,101954.96
2019-02-04T13:23:08.271Z,101963.09
2019-02-04T13:25:36.606Z,101949.06
2019-02-04T13:28:06.604Z,101950.34
2019-02-04T13:30:34.865Z,101956.75
2019-02-04T13:33:03.163Z,101948.20
2019-02-04T13:35:31.411Z,101943.52
2019-02-04T13:37:59.703Z,101940.45
2019-02-04T13:40:29.193Z,101937.90
2019-02-04T13:42:57.485Z,101936.56
2019-02-04T13:45:25.735Z,101940.77
2019-02-04T13:47:54.380Z,101939.24
2019-02-04T13:50:23.307Z,101934.73
2019-02-04T13:52:52.119Z,101938.45
2019-02-04T13:55:25.583Z,101942.72
2019-02-04T13:57:54.553Z,101937.17
2019-02-04T14:00:23.000Z,101934.86
2019-02-04T14:02:58.960Z,101940.78
2019-02-04T14:05:21.447Z,101933.58
2019-02-04T14:07:49.717Z,101933.14
2019-02-04T14:10:22.998Z,101939.25
2019-02-04T14:12:51.268Z,101940.09
2019-02-04T14:15:19.672Z,101926.80
2019-02-04T14:17:47.961Z,101924.05
2019-02-04T14:20:22.435Z,101926.31
2019-02-04T14:22:53.314Z,101927.03
2019-02-04T14:25:20.776Z,101923.20
2019-02-04T14:27:49.074Z,101909.23
2019-02-04T14:30:20.636Z,101911.28
2019-02-04T14:32:49.196Z,101909.34
2019-02-04T14:35:20.819Z,101910.01
2019-02-04T14:37:50.231Z,101900.17
2019-02-04T14:40:26.016Z,101898.13
2019-02-04T14:42:59.790Z,101888.34
2019-02-04T14:45:31.306Z,101888.78
2019-02-04T14:48:06.129Z,101881.70
2019-02-04T14:50:43.466Z,101883.17
2019-02-04T14:53:30.945Z,101875.35
2019-02-04T14:56:08.098Z,101870.28
2019-02-04T14:58:42.217Z,101877.19
2019-02-04T15:01:33.666Z,101870.89
2019-02-04T15:04:17.791Z,101865.59
2019-02-04T15:07:22.771Z,101867.22
2019-02-04T15:10:18.809Z,101859.97
2019-02-04T15:13:16.263Z,101853.45
2019-02-04T15:16:15.005Z,101854.48
2019-02-04T15:19:05.441Z,101851.41
2019-02-04T15:21:43.255Z,101853.97
2019-02-04T15:24:20.781Z,101852.16
2019-02-04T15:26:54.993Z,101844.04
2019-02-04T15:29:27.899Z,101834.77
2019-02-04T15:32:20.379Z,101837.77
2019-02-04T15:35:15.980Z,101731.75
2019-02-04T15:37:50.244Z,101837.75
2019-02-04T15:40:24.484Z,101827.34
2019-02-04T15:43:07.848Z,101839.89
2019-02-04T15:45:43.824Z,101830.86
2019-02-04T15:48:14.915Z,101828.34
2019-02-04T15:50:46.470Z,101838.05
2019-02-04T15:53:14.795Z,101833.66
2019-02-04T15:55:43.938Z,101825.49
2019-02-04T15:58:12.225Z,101830.92
2019-02-04T16:00:40.498Z,101824.76
2019-02-04T16:03:08.755Z,101836.64
2019-02-04T16:05:37.047Z,101839.25
2019-02-04T16:08:05.390Z,101828.81
2019-02-04T16:10:33.675Z,101830.50
2019-02-04T16:13:01.961Z,101836.25
2019-02-04T16:15:30.247Z,101831.02
2019-02-04T16:17:59.240Z,101836.48
2019-02-04T16:20:27.779Z,101839.95
2019-02-04T16:22:58.786Z,101837.41
2019-02-04T16:25:26.381Z,101841.20
2019-02-04T16:27:55.042Z,101842.22
2019-02-04T16:30:23.586Z,101843.98
2019-02-04T16:32:53.004Z,101845.45
2019-02-04T16:35:21.590Z,101849.75
2019-02-04T16:37:56.110Z,101841.55
2019-02-04T16:40:24.661Z,101830.98
2019-02-04T16:42:53.613Z,101823.61
2019-02-04T16:45:26.825Z,101822.39
2019-02-04T16:47:55.493Z,101815.02
2019-02-04T16:50:26.155Z,101817.22
2019-02-04T16:52:54.747Z,101816.42
2019-02-04T16:55:26.403Z,101820.98
2019-02-04T16:57:54.891Z,101815.84
2019-02-04T17:00:25.212Z,101814.22
2019-02-04T17:02:53.619Z,101812.87
2019-02-04T17:05:23.431Z,101818.44
2019-02-04T17:07:51.692Z,101820.54
2019-02-04T17:10:22.223Z,101826.77
2019-02-04T17:12:50.659Z,101827.82
2019-02-04T17:15:19.294Z,101835.41
2019-02-04T17:17:47.908Z,101842.70
2019-02-04T17:24:22.574Z,101840.08
2019-02-04T17:26:52.832Z,101830.84
2019-02-04T17:29:21.175Z,101832.73
2019-02-04T17:31:51.321Z,101828.42
2019-02-04T17:34:20.369Z,101828.23
2019-02-04T17:36:48.713Z,101820.45
2019-02-04T17:39:16.952Z,101815.37
2019-02-04T17:41:47.626Z,101802.83
2019-02-04T17:44:16.065Z,101797.20
2019-02-04T17:46:44.849Z,101808.67
2019-02-04T17:49:13.247Z,101813.39
2019-02-04T17:51:41.688Z,101809.30
2019-02-04T17:54:11.678Z,101805.34
2019-02-04T17:56:42.484Z,101805.41
2019-02-04T17:59:10.785Z,101804.74
2019-02-04T18:01:39.180Z,101802.50
2019-02-04T18:04:09.154Z,101800.97
2019-02-04T18:06:37.439Z,101792.74
2019-02-04T18:09:10.231Z,101795.77
2019-02-04T18:11:38.830Z,101795.06
2019-02-04T18:14:07.128Z,101796.95
2019-02-04T18:16:37.893Z,101794.91
2019-02-04T18:19:06.154Z,101784.82
2019-02-04T18:21:34.496Z,101782.97
2019-02-04T18:24:02.762Z,101790.66
2019-02-04T18:26:31.055Z,101785.43
2019-02-04T18:28:59.370Z,101781.41
2019-02-04T18:31:27.774Z,101783.73
2019-02-04T18:33:56.433Z,101782.20
2019-02-04T18:36:24.740Z,101777.64
2019-02-04T18:38:53.176Z,101774.69
2019-02-04T18:41:21.469Z,101783.60
2019-02-04T18:43:49.759Z,101770.31
2019-02-04T18:46:18.062Z,101770.00
2019-02-04T18:48:46.808Z,101774.89
2019-02-04T18:51:15.072Z,101750.44
2019-02-04T18:53:43.423Z,101756.91
2019-02-04T18:56:13.690Z,101740.73
2019-02-04T18:58:41.977Z,101731.78
2019-02-04T19:01:10.270Z,101735.45
2019-02-04T19:03:38.546Z,101743.60
2019-02-04T19:06:06.837Z,101737.53
2019-02-04T19:08:35.100Z,101735.37
2019-02-04T19:11:03.672Z,101734.34
2019-02-04T19:13:36.092Z,101729.30
2019-02-04T19:16:02.053Z,101734.66
2019-02-04T19:18:30.344Z,101731.07
2019-02-04T19:20:58.635Z,101738.73
2019-02-04T19:23:27.173Z,101721.06
2019-02-04T19:25:55.393Z,101721.68
2019-02-04T19:28:23.667Z,101721.48
2019-02-04T19:31:01.267Z,101719.10
2019-02-04T19:33:29.766Z,101719.34
2019-02-04T19:35:58.198Z,101725.88
2019-02-04T19:38:26.493Z,101726.73
2019-02-04T19:40:55.199Z,101733.30
2019-02-04T19:43:23.503Z,101729.05
2019-02-04T19:45:52.074Z,101730.08
2019-02-04T19:48:20.370Z,101727.14
2019-02-04T19:50:48.641Z,101730.52
2019-02-04T19:53:16.961Z,101737.52
2019-02-04T19:55:45.223Z,101738.20
2019-02-04T19:58:13.988Z,101732.84
2019-02-04T20:00:42.320Z,101744.48
2019-02-04T20:03:10.617Z,101748.87
2019-02-04T20:05:39.117Z,101749.48
2019-02-04T20:08:07.499Z,101744.66
2019-02-04T20:10:35.932Z,101739.46
2019-02-04T20:13:04.878Z,101740.02
2019-02-04T20:15:33.670Z,101731.97
2019-02-04T20:18:02.217Z,101731.50
2019-02-04T20:20:30.595Z,101733.80
2019-02-04T20:23:00.635Z,101744.11
2019-02-04T20:25:34.329Z,101725.33
2019-02-04T20:28:05.482Z,101738.19
2019-02-04T20:30:45.874Z,101730.52
2019-02-04T20:33:10.564Z,101739.12
2019-02-04T20:35:39.219Z,101739.73
2019-02-04T20:38:08.581Z,101734.30
2019-02-04T20:40:38.528Z,101747.59
2019-02-04T20:43:08.043Z,101737.52
2019-02-04T20:45:36.475Z,101733.91
2019-02-04T20:48:06.932Z,101745.01
2019-02-04T20:51:03.452Z,101742.23
2019-02-04T20:53:31.735Z,101732.05
2019-02-04T20:56:00.381Z,101737.95
2019-02-04T20:58:28.652Z,101735.94
2019-02-04T21:00:59.905Z,101738.44
2019-02-04T21:03:28.162Z,101737.59
2019-02-04T21:05:56.922Z,101739.78
2019-02-04T21:08:25.200Z,101740.09
2019-02-04T21:10:55.741Z,101739.48
2019-02-04T21:13:23.569Z,101738.67
2019-02-04T21:15:51.859Z,101748.37
2019-02-04T21:18:20.100Z,101740.09
2019-02-04T21:20:48.515Z,101751.84
2019-02-04T21:23:17.320Z,101741.84
2019-02-04T21:25:46.278Z,101746.36
2019-02-04T21:28:14.527Z,101749.59
2019-02-04T21:30:42.881Z,101749.66
2019-02-04T21:33:11.125Z,101744.11
2019-02-04T21:35:39.389Z,101748.00
2019-02-04T21:38:08.024Z,101748.14
2019-02-04T21:40:36.324Z,101754.30
2019-02-04T21:43:04.734Z,101754.28
2019-02-04T21:45:32.994Z,101745.70
2019-02-04T21:48:01.258Z,101745.45
2019-02-04T21:50:29.652Z,101752.89
2019-02-04T21:52:57.938Z,101757.53
2019-02-04T21:55:26.565Z,101752.53
2019-02-04T21:57:54.823Z,101757.21
2019-02-04T22:00:25.537Z,101754.89
2019-02-04T22:02:55.443Z,101756.67
2019-02-04T22:05:25.906Z,101757.28
2019-02-04T22:07:54.355Z,101747.95
2019-02-04T22:10:25.161Z,101748.50
2019-02-04T22:12:53.432Z,101740.80
2019-02-04T22:15:21.801Z,101742.28
2019-02-04T22:17:50.056Z,101741.59
2019-02-04T22:20:19.727Z,101744.58
2019-02-04T22:22:48.045Z,101736.31
2019-02-04T22:25:23.785Z,101740.88
2019-02-04T22:27:52.054Z,101728.48
2019-02-04T22:30:23.124Z,101726.67
2019-02-04T22:32:51.371Z,101732.09
2019-02-04T22:35:20.357Z,101728.14
2019-02-04T22:37:50.217Z,101633.78
2019-02-04T22:40:21.632Z,101726.32
2019-02-04T22:42:50.052Z,101729.34
2019-02-04T22:45:20.104Z,101725.39
2019-02-04T22:47:48.361Z,101728.14
2019-02-04T22:50:20.551Z,101735.33
2019-02-04T22:52:48.762Z,101731.78
2019-02-04T22:55:17.457Z,101736.00
2019-02-04T22:57:45.694Z,101734.03
2019-02-04T23:00:47.767Z,101736.55
2019-02-04T23:03:18.225Z,101740.80
2019-02-04T23:05:46.493Z,101730.88
2019-02-04T23:08:14.721Z,101740.07
2019-02-04T23:10:43.047Z,101731.55
2019-02-04T23:13:12.926Z,101735.31
2019-02-04T23:15:41.178Z,101739.41
2019-02-04T23:18:16.771Z,101735.86
2019-02-04T23:20:45.061Z,101736.95
2019-02-04T23:23:17.389Z,101740.37
2019-02-04T23:25:47.227Z,101735.97
2019-02-04T23:28:15.480Z,101734.47
2019-02-04T23:30:44.120Z,101734.21
2019-02-04T23:33:12.389Z,101733.53
2019-02-04T23:35:40.629Z,101731.75
2019-02-04T23:38:08.891Z,101731.59
2019-02-04T23:40:39.923Z,101728.53
2019-02-04T23:43:08.170Z,101732.08
2019-02-04T23:45:36.435Z,101747.30
2019-02-04T23:48:07.862Z,101742.25
2019-02-04T23:50:36.095Z,101745.22
2019-02-04T23:53:04.508Z,101743.14
2019-02-04T23:55:32.767Z,101743.88
2019-02-04T23:58:01.047Z,101737.14
